sensor_id;sensor_type;location;lat;lon;timestamp;temperature;humidity
63094;DHT22;49183;51.380;0.098;2023-08-01T00:02:17;13.80;92.60
63094;DHT22;49183;51.380;0.098;2023-08-01T00:04:44;13.80;92.60
63094;DHT22;49183;51.380;0.098;2023-08-01T00:07:12;13.80;92.60
63094;DHT22;49183;51.380;0.098;2023-08-01T00:09:39;13.80;92.60
63094;DHT22;49183;51.380;0.098;2023-08-01T00:12:07;13.80;92.50
63094;DHT22;49183;51.380;0.098;2023-08-01T00:14:35;13.90;92.50
63094;DHT22;49183;51.380;0.098;2023-08-01T00:17:03;13.90;92.40
63094;DHT22;49183;51.380;0.098;2023-08-01T00:19:31;13.90;92.30
63094;DHT22;49183;51.380;0.098;2023-08-01T00:21:58;13.90;92.20
63094;DHT22;49183;51.380;0.098;2023-08-01T00:24:25;13.90;92.20
63094;DHT22;49183;51.380;0.098;2023-08-01T00:26:53;13.90;92.20
63094;DHT22;49183;51.380;0.098;2023-08-01T00:29:24;13.80;92.20
63094;DHT22;49183;51.380;0.098;2023-08-01T00:31:51;13.80;92.10
63094;DHT22;49183;51.380;0.098;2023-08-01T00:34:19;13.80;92.20
63094;DHT22;49183;51.380;0.098;2023-08-01T00:36:46;13.80;92.20
63094;DHT22;49183;51.380;0.098;2023-08-01T00:39:14;13.70;92.30
63094;DHT22;49183;51.380;0.098;2023-08-01T00:41:41;13.80;92.30
63094;DHT22;49183;51.380;0.098;2023-08-01T00:44:09;13.80;92.20
63094;DHT22;49183;51.380;0.098;2023-08-01T00:46:38;13.80;92.10
63094;DHT22;49183;51.380;0.098;2023-08-01T00:52:11;13.90;92.00
63094;DHT22;49183;51.380;0.098;2023-08-01T00:54:39;13.90;91.90
63094;DHT22;49183;51.380;0.098;2023-08-01T00:57:07;13.80;91.90
63094;DHT22;49183;51.380;0.098;2023-08-01T00:59:35;13.80;91.90
63094;DHT22;49183;51.380;0.098;2023-08-01T01:02:03;13.80;91.80
63094;DHT22;49183;51.380;0.098;2023-08-01T01:04:30;13.80;91.80
63094;DHT22;49183;51.380;0.098;2023-08-01T01:07:03;13.80;91.70
63094;DHT22;49183;51.380;0.098;2023-08-01T01:09:31;13.80;91.70
63094;DHT22;49183;51.380;0.098;2023-08-01T01:11:59;13.80;91.70
63094;DHT22;49183;51.380;0.098;2023-08-01T01:14:27;13.80;91.70
63094;DHT22;49183;51.380;0.098;2023-08-01T01:23:35;13.80;91.70
63094;DHT22;49183;51.380;0.098;2023-08-01T01:32:40;13.40;91.70
63094;DHT22;49183;51.380;0.098;2023-08-01T01:35:08;13.30;91.90
63094;DHT22;49183;51.380;0.098;2023-08-01T01:37:42;13.30;92.00
63094;DHT22;49183;51.380;0.098;2023-08-01T01:49:45;13.10;92.20
63094;DHT22;49183;51.380;0.098;2023-08-01T01:52:16;13.10;92.20
63094;DHT22;49183;51.380;0.098;2023-08-01T01:54:50;13.20;92.30
63094;DHT22;49183;51.380;0.098;2023-08-01T02:03:55;13.20;92.10
63094;DHT22;49183;51.380;0.098;2023-08-01T02:06:23;13.20;92.10
63094;DHT22;49183;51.380;0.098;2023-08-01T02:08:54;13.20;92.10
63094;DHT22;49183;51.380;0.098;2023-08-01T02:11:24;13.20;92.10
63094;DHT22;49183;51.380;0.098;2023-08-01T02:16:36;13.20;92.10
63094;DHT22;49183;51.380;0.098;2023-08-01T02:22:25;13.20;92.10
63094;DHT22;49183;51.380;0.098;2023-08-01T02:34:51;13.30;91.90
63094;DHT22;49183;51.380;0.098;2023-08-01T02:37:19;13.20;91.80
63094;DHT22;49183;51.380;0.098;2023-08-01T02:42:43;13.30;91.80
63094;DHT22;49183;51.380;0.098;2023-08-01T02:45:10;13.30;91.80
63094;DHT22;49183;51.380;0.098;2023-08-01T02:47:41;13.20;91.70
63094;DHT22;49183;51.380;0.098;2023-08-01T02:50:15;13.20;91.70
63094;DHT22;49183;51.380;0.098;2023-08-01T02:52:43;13.20;91.70
63094;DHT22;49183;51.380;0.098;2023-08-01T02:55:11;13.20;91.70
63094;DHT22;49183;51.380;0.098;2023-08-01T03:14:30;13.20;91.60
63094;DHT22;49183;51.380;0.098;2023-08-01T03:16:58;13.20;91.60
63094;DHT22;49183;51.380;0.098;2023-08-01T03:19:26;13.20;91.50
63094;DHT22;49183;51.380;0.098;2023-08-01T03:31:32;13.20;91.50
63094;DHT22;49183;51.380;0.098;2023-08-01T03:34:00;13.20;91.50
63094;DHT22;49183;51.380;0.098;2023-08-01T03:39:21;13.20;91.50
63094;DHT22;49183;51.380;0.098;2023-08-01T03:41:57;13.20;91.50
63094;DHT22;49183;51.380;0.098;2023-08-01T03:47:52;13.20;91.60
63094;DHT22;49183;51.380;0.098;2023-08-01T04:03:27;13.10;91.60
63094;DHT22;49183;51.380;0.098;2023-08-01T04:05:55;13.10;91.60
63094;DHT22;49183;51.380;0.098;2023-08-01T04:08:22;13.10;91.60
63094;DHT22;49183;51.380;0.098;2023-08-01T04:10:50;13.10;91.60
63094;DHT22;49183;51.380;0.098;2023-08-01T04:13:17;13.10;91.60
63094;DHT22;49183;51.380;0.098;2023-08-01T04:15:45;13.10;91.60
63094;DHT22;49183;51.380;0.098;2023-08-01T04:18:13;13.20;91.50
63094;DHT22;49183;51.380;0.098;2023-08-01T04:20:40;13.10;91.40
63094;DHT22;49183;51.380;0.098;2023-08-01T04:23:14;13.20;91.40
63094;DHT22;49183;51.380;0.098;2023-08-01T04:25:46;13.20;91.20
63094;DHT22;49183;51.380;0.098;2023-08-01T04:28:14;13.20;91.10
63094;DHT22;49183;51.380;0.098;2023-08-01T04:30:41;13.20;91.00
63094;DHT22;49183;51.380;0.098;2023-08-01T04:33:09;13.20;90.90
63094;DHT22;49183;51.380;0.098;2023-08-01T04:35:36;13.20;90.80
63094;DHT22;49183;51.380;0.098;2023-08-01T04:38:04;13.30;90.80
63094;DHT22;49183;51.380;0.098;2023-08-01T04:40:34;13.30;90.80
63094;DHT22;49183;51.380;0.098;2023-08-01T04:43:02;13.30;90.70
63094;DHT22;49183;51.380;0.098;2023-08-01T04:45:30;13.20;90.60
63094;DHT22;49183;51.380;0.098;2023-08-01T04:50:41;13.20;90.50
63094;DHT22;49183;51.380;0.098;2023-08-01T04:53:08;13.20;90.50
63094;DHT22;49183;51.380;0.098;2023-08-01T04:55:36;13.20;90.50
63094;DHT22;49183;51.380;0.098;2023-08-01T04:58:04;13.20;90.50
63094;DHT22;49183;51.380;0.098;2023-08-01T05:00:31;13.10;90.40
63094;DHT22;49183;51.380;0.098;2023-08-01T05:02:59;13.10;90.40
63094;DHT22;49183;51.380;0.098;2023-08-01T05:08:19;13.10;90.40
63094;DHT22;49183;51.380;0.098;2023-08-01T05:10:46;13.10;90.40
63094;DHT22;49183;51.380;0.098;2023-08-01T05:13:14;13.10;90.40
63094;DHT22;49183;51.380;0.098;2023-08-01T05:15:45;13.10;90.40
63094;DHT22;49183;51.380;0.098;2023-08-01T05:18:46;13.10;90.30
63094;DHT22;49183;51.380;0.098;2023-08-01T05:21:14;13.10;90.30
63094;DHT22;49183;51.380;0.098;2023-08-01T05:23:41;13.00;90.30
63094;DHT22;49183;51.380;0.098;2023-08-01T05:28:59;12.90;90.40
63094;DHT22;49183;51.380;0.098;2023-08-01T05:31:27;13.00;90.50
63094;DHT22;49183;51.380;0.098;2023-08-01T05:33:54;13.00;90.50
63094;DHT22;49183;51.380;0.098;2023-08-01T05:36:22;13.00;90.50
63094;DHT22;49183;51.380;0.098;2023-08-01T05:38:50;13.00;90.40
63094;DHT22;49183;51.380;0.098;2023-08-01T05:41:17;13.00;90.40
63094;DHT22;49183;51.380;0.098;2023-08-01T05:43:46;13.00;90.40
63094;DHT22;49183;51.380;0.098;2023-08-01T05:46:14;13.00;90.30
63094;DHT22;49183;51.380;0.098;2023-08-01T05:48:42;13.00;90.20
63094;DHT22;49183;51.380;0.098;2023-08-01T05:51:09;13.10;90.20
63094;DHT22;49183;51.380;0.098;2023-08-01T05:57:04;13.10;90.10
63094;DHT22;49183;51.380;0.098;2023-08-01T05:59:32;13.10;90.00
63094;DHT22;49183;51.380;0.098;2023-08-01T06:02:01;13.20;90.00
63094;DHT22;49183;51.380;0.098;2023-08-01T06:07:22;13.20;89.80
63094;DHT22;49183;51.380;0.098;2023-08-01T06:09:50;13.30;89.70
63094;DHT22;49183;51.380;0.098;2023-08-01T06:12:21;13.30;89.50
63094;DHT22;49183;51.380;0.098;2023-08-01T06:14:49;13.30;89.50
63094;DHT22;49183;51.380;0.098;2023-08-01T06:17:17;13.40;89.40
63094;DHT22;49183;51.380;0.098;2023-08-01T06:22:46;13.50;89.20
63094;DHT22;49183;51.380;0.098;2023-08-01T06:25:14;13.60;89.20
63094;DHT22;49183;51.380;0.098;2023-08-01T06:27:43;13.60;89.20
63094;DHT22;49183;51.380;0.098;2023-08-01T06:33:23;13.80;89.10
63094;DHT22;49183;51.380;0.098;2023-08-01T06:35:51;13.90;89.00
63094;DHT22;49183;51.380;0.098;2023-08-01T06:38:19;14.00;88.80
63094;DHT22;49183;51.380;0.098;2023-08-01T06:40:46;14.10;88.60
63094;DHT22;49183;51.380;0.098;2023-08-01T06:43:14;14.10;88.30
63094;DHT22;49183;51.380;0.098;2023-08-01T06:45:42;14.20;88.10
63094;DHT22;49183;51.380;0.098;2023-08-01T06:48:10;14.30;88.00
63094;DHT22;49183;51.380;0.098;2023-08-01T06:50:38;14.40;87.80
63094;DHT22;49183;51.380;0.098;2023-08-01T06:53:06;14.40;87.60
63094;DHT22;49183;51.380;0.098;2023-08-01T06:55:34;14.40;87.40
63094;DHT22;49183;51.380;0.098;2023-08-01T06:58:01;14.50;87.30
63094;DHT22;49183;51.380;0.098;2023-08-01T07:00:29;14.60;87.30
63094;DHT22;49183;51.380;0.098;2023-08-01T07:02:58;14.60;87.10
63094;DHT22;49183;51.380;0.098;2023-08-01T07:05:25;14.70;86.90
63094;DHT22;49183;51.380;0.098;2023-08-01T07:07:53;14.70;86.80
63094;DHT22;49183;51.380;0.098;2023-08-01T07:10:20;14.70;86.70
63094;DHT22;49183;51.380;0.098;2023-08-01T07:12:48;14.70;86.50
63094;DHT22;49183;51.380;0.098;2023-08-01T07:15:16;14.70;86.50
63094;DHT22;49183;51.380;0.098;2023-08-01T07:17:43;14.70;86.30
63094;DHT22;49183;51.380;0.098;2023-08-01T07:20:11;14.70;86.00
63094;DHT22;49183;51.380;0.098;2023-08-01T07:22:39;14.60;86.10
63094;DHT22;49183;51.380;0.098;2023-08-01T07:25:06;14.60;86.10
63094;DHT22;49183;51.380;0.098;2023-08-01T07:27:36;14.60;86.10
63094;DHT22;49183;51.380;0.098;2023-08-01T07:30:05;14.60;86.20
63094;DHT22;49183;51.380;0.098;2023-08-01T07:32:33;14.70;86.20
63094;DHT22;49183;51.380;0.098;2023-08-01T07:35:01;14.70;86.10
63094;DHT22;49183;51.380;0.098;2023-08-01T07:37:29;14.80;85.90
63094;DHT22;49183;51.380;0.098;2023-08-01T07:39:56;14.80;85.50
63094;DHT22;49183;51.380;0.098;2023-08-01T07:42:24;14.90;85.40
63094;DHT22;49183;51.380;0.098;2023-08-01T07:44:52;15.00;85.40
63094;DHT22;49183;51.380;0.098;2023-08-01T07:47:19;15.10;85.10
63094;DHT22;49183;51.380;0.098;2023-08-01T07:49:47;15.10;85.00
63094;DHT22;49183;51.380;0.098;2023-08-01T07:52:14;15.10;84.80
63094;DHT22;49183;51.380;0.098;2023-08-01T07:54:42;15.10;84.50
63094;DHT22;49183;51.380;0.098;2023-08-01T07:57:10;15.10;84.50
63094;DHT22;49183;51.380;0.098;2023-08-01T07:59:38;15.10;84.50
63094;DHT22;49183;51.380;0.098;2023-08-01T08:02:06;15.20;84.30
63094;DHT22;49183;51.380;0.098;2023-08-01T08:04:33;15.30;84.40
63094;DHT22;49183;51.380;0.098;2023-08-01T08:07:01;15.40;84.40
63094;DHT22;49183;51.380;0.098;2023-08-01T08:09:32;15.50;84.10
63094;DHT22;49183;51.380;0.098;2023-08-01T08:12:00;15.60;83.80
63094;DHT22;49183;51.380;0.098;2023-08-01T08:14:27;15.60;83.80
63094;DHT22;49183;51.380;0.098;2023-08-01T08:16:55;15.70;83.80
63094;DHT22;49183;51.380;0.098;2023-08-01T08:19:29;15.70;83.50
63094;DHT22;49183;51.380;0.098;2023-08-01T08:21:57;15.70;83.50
63094;DHT22;49183;51.380;0.098;2023-08-01T08:24:25;15.60;83.40
63094;DHT22;49183;51.380;0.098;2023-08-01T08:26:52;15.60;83.50
63094;DHT22;49183;51.380;0.098;2023-08-01T08:29:21;15.60;83.60
63094;DHT22;49183;51.380;0.098;2023-08-01T08:31:49;15.50;83.70
63094;DHT22;49183;51.380;0.098;2023-08-01T08:34:16;15.60;83.30
63094;DHT22;49183;51.380;0.098;2023-08-01T08:36:44;15.50;83.30
63094;DHT22;49183;51.380;0.098;2023-08-01T08:39:13;15.60;83.10
63094;DHT22;49183;51.380;0.098;2023-08-01T08:41:51;15.60;83.00
63094;DHT22;49183;51.380;0.098;2023-08-01T08:44:19;15.70;83.10
63094;DHT22;49183;51.380;0.098;2023-08-01T08:46:59;15.80;83.20
63094;DHT22;49183;51.380;0.098;2023-08-01T08:49:29;15.90;82.80
63094;DHT22;49183;51.380;0.098;2023-08-01T08:51:58;16.00;82.70
63094;DHT22;49183;51.380;0.098;2023-08-01T08:54:29;16.10;82.60
63094;DHT22;49183;51.380;0.098;2023-08-01T08:56:58;16.30;82.50
63094;DHT22;49183;51.380;0.098;2023-08-01T08:59:26;16.70;82.00
63094;DHT22;49183;51.380;0.098;2023-08-01T09:01:54;17.00;81.20
63094;DHT22;49183;51.380;0.098;2023-08-01T09:04:22;17.10;80.90
63094;DHT22;49183;51.380;0.098;2023-08-01T09:06:51;17.20;80.70
63094;DHT22;49183;51.380;0.098;2023-08-01T09:09:19;17.30;80.20
63094;DHT22;49183;51.380;0.098;2023-08-01T09:11:48;17.30;79.50
63094;DHT22;49183;51.380;0.098;2023-08-01T09:14:16;17.30;79.40
63094;DHT22;49183;51.380;0.098;2023-08-01T09:16:44;17.30;78.50
63094;DHT22;49183;51.380;0.098;2023-08-01T09:19:15;17.20;78.50
63094;DHT22;49183;51.380;0.098;2023-08-01T09:21:43;17.10;78.70
63094;DHT22;49183;51.380;0.098;2023-08-01T09:24:15;17.10;78.60
63094;DHT22;49183;51.380;0.098;2023-08-01T09:26:43;17.00;78.60
63094;DHT22;49183;51.380;0.098;2023-08-01T09:29:11;17.00;78.50
63094;DHT22;49183;51.380;0.098;2023-08-01T09:31:39;17.00;78.10
63094;DHT22;49183;51.380;0.098;2023-08-01T09:34:23;16.90;78.10
63094;DHT22;49183;51.380;0.098;2023-08-01T09:36:51;17.00;78.20
63094;DHT22;49183;51.380;0.098;2023-08-01T09:39:24;17.10;78.20
63094;DHT22;49183;51.380;0.098;2023-08-01T09:41:58;17.20;77.80
63094;DHT22;49183;51.380;0.098;2023-08-01T09:44:26;17.40;78.00
63094;DHT22;49183;51.380;0.098;2023-08-01T09:46:55;17.70;77.70
63094;DHT22;49183;51.380;0.098;2023-08-01T09:49:23;17.90;77.60
63094;DHT22;49183;51.380;0.098;2023-08-01T09:51:50;18.00;76.70
63094;DHT22;49183;51.380;0.098;2023-08-01T09:54:18;18.00;76.10
63094;DHT22;49183;51.380;0.098;2023-08-01T09:56:48;17.90;75.90
63094;DHT22;49183;51.380;0.098;2023-08-01T09:59:20;17.80;75.90
63094;DHT22;49183;51.380;0.098;2023-08-01T10:01:54;17.70;75.70
63094;DHT22;49183;51.380;0.098;2023-08-01T10:07:39;17.40;76.30
63094;DHT22;49183;51.380;0.098;2023-08-01T10:10:08;17.30;76.40
63094;DHT22;49183;51.380;0.098;2023-08-01T10:12:36;17.30;76.80
63094;DHT22;49183;51.380;0.098;2023-08-01T10:15:04;17.40;77.20
63094;DHT22;49183;51.380;0.098;2023-08-01T10:17:32;17.60;77.20
63094;DHT22;49183;51.380;0.098;2023-08-01T10:20:01;17.80;76.80
63094;DHT22;49183;51.380;0.098;2023-08-01T10:22:39;17.90;76.10
63094;DHT22;49183;51.380;0.098;2023-08-01T10:28:16;17.90;76.00
63094;DHT22;49183;51.380;0.098;2023-08-01T10:30:44;17.90;76.20
63094;DHT22;49183;51.380;0.098;2023-08-01T10:33:12;17.90;75.40
63094;DHT22;49183;51.380;0.098;2023-08-01T10:35:41;18.00;75.10
63094;DHT22;49183;51.380;0.098;2023-08-01T10:38:12;18.00;75.40
63094;DHT22;49183;51.380;0.098;2023-08-01T10:40:40;18.10;75.30
63094;DHT22;49183;51.380;0.098;2023-08-01T10:43:21;18.10;75.00
63094;DHT22;49183;51.380;0.098;2023-08-01T10:46:04;18.00;74.70
63094;DHT22;49183;51.380;0.098;2023-08-01T10:48:32;18.00;74.80
63094;DHT22;49183;51.380;0.098;2023-08-01T10:51:00;18.00;75.00
63094;DHT22;49183;51.380;0.098;2023-08-01T10:53:37;18.00;74.40
63094;DHT22;49183;51.380;0.098;2023-08-01T10:56:16;18.10;74.50
63094;DHT22;49183;51.380;0.098;2023-08-01T11:01:30;18.10;75.10
63094;DHT22;49183;51.380;0.098;2023-08-01T11:03:58;18.10;75.00
63094;DHT22;49183;51.380;0.098;2023-08-01T11:06:26;18.30;75.00
63094;DHT22;49183;51.380;0.098;2023-08-01T11:08:54;18.50;74.90
63094;DHT22;49183;51.380;0.098;2023-08-01T11:11:23;18.60;74.60
63094;DHT22;49183;51.380;0.098;2023-08-01T11:13:52;18.70;74.20
63094;DHT22;49183;51.380;0.098;2023-08-01T11:16:20;18.60;74.20
63094;DHT22;49183;51.380;0.098;2023-08-01T11:18:48;18.60;74.20
63094;DHT22;49183;51.380;0.098;2023-08-01T11:21:24;18.60;74.00
63094;DHT22;49183;51.380;0.098;2023-08-01T11:23:52;18.60;74.20
63094;DHT22;49183;51.380;0.098;2023-08-01T11:26:20;18.70;74.10
63094;DHT22;49183;51.380;0.098;2023-08-01T11:28:47;18.80;73.80
63094;DHT22;49183;51.380;0.098;2023-08-01T11:31:15;19.00;73.50
63094;DHT22;49183;51.380;0.098;2023-08-01T11:33:43;19.00;73.20
63094;DHT22;49183;51.380;0.098;2023-08-01T11:36:36;18.90;73.10
63094;DHT22;49183;51.380;0.098;2023-08-01T11:39:04;18.80;73.00
63094;DHT22;49183;51.380;0.098;2023-08-01T11:41:31;18.60;72.50
63094;DHT22;49183;51.380;0.098;2023-08-01T11:44:03;18.50;72.70
63094;DHT22;49183;51.380;0.098;2023-08-01T11:46:32;18.40;72.50
63094;DHT22;49183;51.380;0.098;2023-08-01T11:49:00;18.40;72.60
63094;DHT22;49183;51.380;0.098;2023-08-01T11:51:28;18.50;73.10
63094;DHT22;49183;51.380;0.098;2023-08-01T11:54:00;18.80;73.20
63094;DHT22;49183;51.380;0.098;2023-08-01T11:56:29;19.10;72.60
63094;DHT22;49183;51.380;0.098;2023-08-01T11:59:15;19.20;71.80
63094;DHT22;49183;51.380;0.098;2023-08-01T12:01:46;19.10;71.10
63094;DHT22;49183;51.380;0.098;2023-08-01T12:04:27;19.00;71.40
63094;DHT22;49183;51.380;0.098;2023-08-01T12:06:55;18.90;71.10
63094;DHT22;49183;51.380;0.098;2023-08-01T12:09:23;18.60;70.60
63094;DHT22;49183;51.380;0.098;2023-08-01T12:11:59;18.40;70.90
63094;DHT22;49183;51.380;0.098;2023-08-01T12:14:28;18.30;71.50
63094;DHT22;49183;51.380;0.098;2023-08-01T12:20:23;18.20;72.50
63094;DHT22;49183;51.380;0.098;2023-08-01T12:22:51;18.20;72.90
63094;DHT22;49183;51.380;0.098;2023-08-01T12:25:18;18.20;73.00
63094;DHT22;49183;51.380;0.098;2023-08-01T12:27:46;18.30;73.10
63094;DHT22;49183;51.380;0.098;2023-08-01T12:30:20;18.40;72.90
63094;DHT22;49183;51.380;0.098;2023-08-01T12:36:16;18.70;72.80
63094;DHT22;49183;51.380;0.098;2023-08-01T12:38:44;19.00;72.70
63094;DHT22;49183;51.380;0.098;2023-08-01T12:44:05;19.30;71.70
63094;DHT22;49183;51.380;0.098;2023-08-01T12:46:33;19.30;70.60
63094;DHT22;49183;51.380;0.098;2023-08-01T12:49:00;19.10;70.50
63094;DHT22;49183;51.380;0.098;2023-08-01T12:51:30;18.90;70.20
63094;DHT22;49183;51.380;0.098;2023-08-01T12:53:58;18.70;70.70
63094;DHT22;49183;51.380;0.098;2023-08-01T12:56:27;18.50;70.90
63094;DHT22;49183;51.380;0.098;2023-08-01T13:12:39;18.20;72.20
63094;DHT22;49183;51.380;0.098;2023-08-01T13:15:10;18.30;72.50
63094;DHT22;49183;51.380;0.098;2023-08-01T13:17:44;18.40;72.80
63094;DHT22;49183;51.380;0.098;2023-08-01T13:20:12;18.60;72.40
63094;DHT22;49183;51.380;0.098;2023-08-01T13:22:40;18.70;72.00
63094;DHT22;49183;51.380;0.098;2023-08-01T13:25:08;18.80;71.90
63094;DHT22;49183;51.380;0.098;2023-08-01T13:27:35;18.80;71.20
63094;DHT22;49183;51.380;0.098;2023-08-01T13:30:09;18.80;70.70
63094;DHT22;49183;51.380;0.098;2023-08-01T13:35:38;18.60;71.10
63094;DHT22;49183;51.380;0.098;2023-08-01T13:38:06;18.60;71.50
63094;DHT22;49183;51.380;0.098;2023-08-01T13:40:34;18.50;71.60
63094;DHT22;49183;51.380;0.098;2023-08-01T13:43:03;18.40;71.80
63094;DHT22;49183;51.380;0.098;2023-08-01T13:48:21;18.40;71.70
63094;DHT22;49183;51.380;0.098;2023-08-01T13:50:49;18.40;71.90
63094;DHT22;49183;51.380;0.098;2023-08-01T13:53:17;18.50;71.80
63094;DHT22;49183;51.380;0.098;2023-08-01T13:55:44;18.50;71.50
63094;DHT22;49183;51.380;0.098;2023-08-01T13:58:12;18.60;71.30
63094;DHT22;49183;51.380;0.098;2023-08-01T14:00:40;18.70;71.40
63094;DHT22;49183;51.380;0.098;2023-08-01T14:03:07;18.80;71.10
63094;DHT22;49183;51.380;0.098;2023-08-01T14:05:35;18.80;70.70
63094;DHT22;49183;51.380;0.098;2023-08-01T14:08:02;18.80;69.80
63094;DHT22;49183;51.380;0.098;2023-08-01T14:10:30;18.80;69.40
63094;DHT22;49183;51.380;0.098;2023-08-01T14:12:57;18.70;69.50
63094;DHT22;49183;51.380;0.098;2023-08-01T14:15:25;18.60;69.50
63094;DHT22;49183;51.380;0.098;2023-08-01T14:17:53;18.60;69.90
63094;DHT22;49183;51.380;0.098;2023-08-01T14:20:20;18.50;70.30
63094;DHT22;49183;51.380;0.098;2023-08-01T14:22:48;18.60;70.30
63094;DHT22;49183;51.380;0.098;2023-08-01T14:25:16;18.60;70.30
63094;DHT22;49183;51.380;0.098;2023-08-01T14:27:43;18.60;70.30
63094;DHT22;49183;51.380;0.098;2023-08-01T14:30:11;18.70;70.30
63094;DHT22;49183;51.380;0.098;2023-08-01T14:32:39;18.80;69.80
63094;DHT22;49183;51.380;0.098;2023-08-01T14:35:16;18.80;69.70
63094;DHT22;49183;51.380;0.098;2023-08-01T14:37:44;18.90;69.70
63094;DHT22;49183;51.380;0.098;2023-08-01T14:40:15;19.10;69.50
63094;DHT22;49183;51.380;0.098;2023-08-01T14:42:43;19.30;69.10
63094;DHT22;49183;51.380;0.098;2023-08-01T14:45:10;19.30;68.90
63094;DHT22;49183;51.380;0.098;2023-08-01T14:47:43;19.50;68.60
63094;DHT22;49183;51.380;0.098;2023-08-01T14:50:11;19.70;68.20
63094;DHT22;49183;51.380;0.098;2023-08-01T14:52:39;19.90;67.60
63094;DHT22;49183;51.380;0.098;2023-08-01T14:55:07;20.10;67.20
63094;DHT22;49183;51.380;0.098;2023-08-01T14:57:35;20.30;66.90
63094;DHT22;49183;51.380;0.098;2023-08-01T15:00:02;20.80;66.50
63094;DHT22;49183;51.380;0.098;2023-08-01T15:02:31;21.20;65.10
63094;DHT22;49183;51.380;0.098;2023-08-01T15:04:58;21.60;64.00
63094;DHT22;49183;51.380;0.098;2023-08-01T15:07:26;21.90;63.40
63094;DHT22;49183;51.380;0.098;2023-08-01T15:09:54;22.10;62.90
63094;DHT22;49183;51.380;0.098;2023-08-01T15:12:23;22.30;63.00
63094;DHT22;49183;51.380;0.098;2023-08-01T15:14:55;22.30;63.10
63094;DHT22;49183;51.380;0.098;2023-08-01T15:17:23;22.00;62.00
63094;DHT22;49183;51.380;0.098;2023-08-01T15:19:51;21.60;61.20
63094;DHT22;49183;51.380;0.098;2023-08-01T15:22:19;21.30;61.40
63094;DHT22;49183;51.380;0.098;2023-08-01T15:24:47;20.90;62.00
63094;DHT22;49183;51.380;0.098;2023-08-01T15:27:14;20.70;62.80
63094;DHT22;49183;51.380;0.098;2023-08-01T15:29:44;20.50;63.00
63094;DHT22;49183;51.380;0.098;2023-08-01T15:32:14;20.40;63.70
63094;DHT22;49183;51.380;0.098;2023-08-01T15:34:42;20.40;64.20
63094;DHT22;49183;51.380;0.098;2023-08-01T15:37:10;20.30;64.50
63094;DHT22;49183;51.380;0.098;2023-08-01T15:39:38;20.30;64.20
63094;DHT22;49183;51.380;0.098;2023-08-01T15:42:06;20.20;64.30
63094;DHT22;49183;51.380;0.098;2023-08-01T15:44:34;20.10;64.50
63094;DHT22;49183;51.380;0.098;2023-08-01T15:47:01;20.00;64.40
63094;DHT22;49183;51.380;0.098;2023-08-01T15:49:29;19.80;64.20
63094;DHT22;49183;51.380;0.098;2023-08-01T15:51:56;19.70;64.20
63094;DHT22;49183;51.380;0.098;2023-08-01T15:54:24;19.60;64.70
63094;DHT22;49183;51.380;0.098;2023-08-01T15:56:52;19.50;65.00
63094;DHT22;49183;51.380;0.098;2023-08-01T15:59:20;19.40;65.00
63094;DHT22;49183;51.380;0.098;2023-08-01T16:01:48;19.30;64.90
63094;DHT22;49183;51.380;0.098;2023-08-01T16:04:16;19.30;65.10
63094;DHT22;49183;51.380;0.098;2023-08-01T16:06:43;19.30;65.30
63094;DHT22;49183;51.380;0.098;2023-08-01T16:09:12;19.30;65.60
63094;DHT22;49183;51.380;0.098;2023-08-01T16:11:39;19.40;65.70
63094;DHT22;49183;51.380;0.098;2023-08-01T16:14:07;19.50;65.50
63094;DHT22;49183;51.380;0.098;2023-08-01T16:16:34;19.60;65.50
63094;DHT22;49183;51.380;0.098;2023-08-01T16:19:02;19.60;65.30
63094;DHT22;49183;51.380;0.098;2023-08-01T16:21:29;19.70;65.30
63094;DHT22;49183;51.380;0.098;2023-08-01T16:23:57;19.80;64.80
63094;DHT22;49183;51.380;0.098;2023-08-01T16:26:28;19.70;63.80
63094;DHT22;49183;51.380;0.098;2023-08-01T16:28:55;19.70;63.80
63094;DHT22;49183;51.380;0.098;2023-08-01T16:31:23;19.60;63.80
63094;DHT22;49183;51.380;0.098;2023-08-01T16:33:51;19.70;63.80
63094;DHT22;49183;51.380;0.098;2023-08-01T16:36:18;19.60;64.00
63094;DHT22;49183;51.380;0.098;2023-08-01T16:38:46;19.60;64.20
63094;DHT22;49183;51.380;0.098;2023-08-01T16:41:13;19.70;64.30
63094;DHT22;49183;51.380;0.098;2023-08-01T16:43:48;19.70;64.20
63094;DHT22;49183;51.380;0.098;2023-08-01T16:46:16;19.70;64.20
63094;DHT22;49183;51.380;0.098;2023-08-01T16:48:44;19.70;63.50
63094;DHT22;49183;51.380;0.098;2023-08-01T16:51:11;19.70;63.60
63094;DHT22;49183;51.380;0.098;2023-08-01T16:53:39;19.70;63.40
63094;DHT22;49183;51.380;0.098;2023-08-01T16:56:06;19.80;62.80
63094;DHT22;49183;51.380;0.098;2023-08-01T16:58:34;19.80;62.90
63094;DHT22;49183;51.380;0.098;2023-08-01T17:01:01;19.80;62.90
63094;DHT22;49183;51.380;0.098;2023-08-01T17:03:29;19.90;63.20
63094;DHT22;49183;51.380;0.098;2023-08-01T17:05:57;20.10;63.10
63094;DHT22;49183;51.380;0.098;2023-08-01T17:08:24;20.30;63.00
63094;DHT22;49183;51.380;0.098;2023-08-01T17:10:52;20.30;62.90
63094;DHT22;49183;51.380;0.098;2023-08-01T17:13:20;20.50;62.80
63094;DHT22;49183;51.380;0.098;2023-08-01T17:15:50;20.60;62.70
63094;DHT22;49183;51.380;0.098;2023-08-01T17:18:19;20.60;62.30
63094;DHT22;49183;51.380;0.098;2023-08-01T17:20:48;20.40;61.70
63094;DHT22;49183;51.380;0.098;2023-08-01T17:23:15;20.30;62.00
63094;DHT22;49183;51.380;0.098;2023-08-01T17:25:43;20.10;62.00
63094;DHT22;49183;51.380;0.098;2023-08-01T17:28:10;20.00;62.40
63094;DHT22;49183;51.380;0.098;2023-08-01T17:30:39;19.90;62.80
63094;DHT22;49183;51.380;0.098;2023-08-01T17:33:13;19.80;63.00
63094;DHT22;49183;51.380;0.098;2023-08-01T17:35:41;19.80;63.40
63094;DHT22;49183;51.380;0.098;2023-08-01T17:38:09;19.80;63.50
63094;DHT22;49183;51.380;0.098;2023-08-01T17:40:36;19.70;63.50
63094;DHT22;49183;51.380;0.098;2023-08-01T17:43:10;19.70;63.70
63094;DHT22;49183;51.380;0.098;2023-08-01T17:45:39;19.70;63.90
63094;DHT22;49183;51.380;0.098;2023-08-01T17:54:10;21.30;63.00
63094;DHT22;49183;51.380;0.098;2023-08-01T17:56:38;22.50;61.60
63094;DHT22;49183;51.380;0.098;2023-08-01T18:02:18;23.30;59.20
63094;DHT22;49183;51.380;0.098;2023-08-01T18:04:46;23.10;58.00
63094;DHT22;49183;51.380;0.098;2023-08-01T18:07:13;23.00;58.10
63094;DHT22;49183;51.380;0.098;2023-08-01T18:09:41;22.80;57.80
63094;DHT22;49183;51.380;0.098;2023-08-01T18:12:09;22.80;58.30
63094;DHT22;49183;51.380;0.098;2023-08-01T18:14:37;22.60;58.70
63094;DHT22;49183;51.380;0.098;2023-08-01T18:17:05;22.30;59.30
63094;DHT22;49183;51.380;0.098;2023-08-01T18:19:32;22.00;59.40
63094;DHT22;49183;51.380;0.098;2023-08-01T18:22:00;22.10;59.60
63094;DHT22;49183;51.380;0.098;2023-08-01T18:24:29;22.30;59.20
63094;DHT22;49183;51.380;0.098;2023-08-01T18:26:57;22.70;58.80